Time;durP1;ratioP1;P1;durP2;ratioP2;P2;SDS_P1;SDS_P2;PMS_P1;PMS_P2;Temp;Humidity;BMP_temperature;BMP_pressure;BME280_temperature;BME280_humidity;BME280_pressure;Samples;Min_cycle;Max_cycle;Signal;HPM_P1;HPM_P2
2022/08/21 00:01:23;;;;;;;35.40;12.45;;;;;;;18.41;100.00;99017.42;1769706;80;21546;-79
2022/08/21 00:03:50;;;;;;;36.55;12.33;;;;;;;18.39;100.00;99017.00;1769530;80;20936;-79
2022/08/21 00:06:17;;;;;;;43.52;12.33;;;;;;;18.36;100.00;99020.54;1764257;80;21589;-80
2022/08/21 00:08:43;;;;;;;28.32;11.73;;;;;;;18.34;100.00;99032.63;1755490;80;21112;-80
2022/08/21 00:11:09;;;;;;;38.67;12.65;;;;;;;18.31;100.00;99029.80;1761841;80;20999;-79
2022/08/21 00:13:36;;;;;;;50.90;13.20;;;;;;;18.29;100.00;99034.35;1752796;80;21576;-79
2022/08/21 00:16:04;;;;;;;33.70;11.65;;;;;;;18.27;100.00;99033.93;1773721;80;20889;-80
2022/08/21 00:18:31;;;;;;;30.12;11.28;;;;;;;18.26;100.00;99028.75;1758043;80;21074;-79
2022/08/21 00:20:58;;;;;;;29.57;11.50;;;;;;;18.26;100.00;99028.75;1749849;80;22107;-81
2022/08/21 00:23:24;;;;;;;33.35;12.35;;;;;;;18.28;100.00;99029.97;1725962;82;20983;-78
2022/08/21 00:25:51;;;;;;;27.25;12.07;;;;;;;18.29;100.00;99031.57;1727783;82;20947;-78
2022/08/21 00:28:18;;;;;;;40.15;12.60;;;;;;;18.30;100.00;99024.84;1704186;82;21038;-78
2022/08/21 00:30:45;;;;;;;29.40;12.80;;;;;;;18.33;100.00;99028.84;1693837;83;21470;-77
2022/08/21 00:33:12;;;;;;;43.78;12.07;;;;;;;18.35;100.00;99030.64;1701694;83;21127;-76
2022/08/21 00:35:41;;;;;;;36.88;13.03;;;;;;;18.35;100.00;99027.27;1701401;83;20908;-76
2022/08/21 00:38:08;;;;;;;33.53;12.43;;;;;;;18.36;100.00;99035.02;1685504;83;21078;-77
2022/08/21 00:40:46;;;;;;;34.25;12.73;;;;;;;18.36;100.00;99032.24;1706551;83;20994;-78
2022/08/21 00:43:17;;;;;;;35.75;12.70;;;;;;;18.36;100.00;99033.05;1706103;81;21493;-77
2022/08/21 00:45:44;;;;;;;33.70;11.83;;;;;;;18.36;100.00;99029.47;1706425;83;21552;-76
2022/08/21 00:48:10;;;;;;;35.63;11.38;;;;;;;18.34;100.00;99028.45;1703428;83;21024;-78
2022/08/21 00:50:42;;;;;;;34.58;12.88;;;;;;;18.32;100.00;99020.29;1699936;83;20983;-78
2022/08/21 00:53:10;;;;;;;42.95;12.33;;;;;;;18.30;100.00;99022.64;1680697;83;21746;-78
2022/08/21 00:55:37;;;;;;;38.90;11.60;;;;;;;18.27;100.00;99024.80;1719329;82;20880;-78
2022/08/21 00:58:07;;;;;;;31.62;11.57;;;;;;;18.24;100.00;99026.94;1701350;82;21147;-79
2022/08/21 01:00:38;;;;;;;25.02;11.03;;;;;;;18.19;100.00;99029.47;1729523;82;20860;-79
2022/08/21 01:03:12;;;;;;;36.10;13.32;;;;;;;18.16;100.00;99034.39;1728983;82;21067;-77
2022/08/21 01:05:39;;;;;;;38.67;12.03;;;;;;;18.12;100.00;99037.71;1728285;81;21091;-79
2022/08/21 01:08:07;;;;;;;37.75;11.38;;;;;;;18.08;100.00;99025.76;1728697;82;21102;-79
2022/08/21 01:10:35;;;;;;;31.90;11.75;;;;;;;18.05;100.00;99022.34;1680859;84;21066;-77
2022/08/21 01:13:01;;;;;;;41.63;11.78;;;;;;;18.01;100.00;99015.95;1705588;83;20863;-79
2022/08/21 01:15:33;;;;;;;42.73;12.85;;;;;;;17.99;100.00;99023.27;1699371;83;21503;-79
2022/08/21 01:18:04;;;;;;;38.85;11.90;;;;;;;17.96;100.00;99016.28;1679688;84;20976;-79
2022/08/21 01:20:32;;;;;;;37.28;11.38;;;;;;;17.91;100.00;99009.08;1742397;80;21007;-79
2022/08/21 01:23:01;;;;;;;41.10;11.15;;;;;;;17.87;100.00;98999.14;1769629;80;21803;-78
2022/08/21 01:25:27;;;;;;;33.95;12.05;;;;;;;17.83;100.00;98988.58;1755915;80;20908;-79
2022/08/21 01:27:54;;;;;;;27.55;10.80;;;;;;;17.80;100.00;98997.87;1779314;80;21434;-77
2022/08/21 01:30:25;;;;;;;25.20;10.00;;;;;;;17.79;100.00;99005.19;1720906;82;21027;-77
2022/08/21 01:32:52;;;;;;;39.88;11.78;;;;;;;17.77;100.00;99016.67;1719101;82;21491;-77
2022/08/21 01:35:19;;;;;;;44.98;12.13;;;;;;;17.75;100.00;99015.44;1768402;80;21090;-79
2022/08/21 01:37:46;;;;;;;37.00;11.08;;;;;;;17.76;100.00;99014.27;1771975;80;20897;-80
2022/08/21 01:40:13;;;;;;;36.90;10.65;;;;;;;17.78;100.00;99010.53;1758536;80;20853;-80
2022/08/21 01:42:39;;;;;;;50.67;12.40;;;;;;;17.79;100.00;99007.38;1756637;80;21062;-79
2022/08/21 01:45:08;;;;;;;42.98;11.22;;;;;;;17.81;100.00;99016.13;1757436;80;20920;-80
2022/08/21 01:47:36;;;;;;;31.45;11.22;;;;;;;17.84;100.00;99004.86;1763418;80;21451;-79
2022/08/21 01:50:06;;;;;;;40.83;12.15;;;;;;;17.87;100.00;99003.30;1754831;80;20915;-80
2022/08/21 01:52:33;;;;;;;37.50;11.05;;;;;;;17.88;100.00;99003.52;1738925;81;20904;-82
2022/08/21 01:55:00;;;;;;;46.53;12.85;;;;;;;17.90;100.00;99013.66;1749319;82;20932;-80
2022/08/21 01:57:26;;;;;;;39.95;11.63;;;;;;;17.91;100.00;99018.03;1731458;82;20932;-80
2022/08/21 01:59:53;;;;;;;38.70;11.03;;;;;;;17.92;100.00;99007.11;1712440;82;21435;-82
2022/08/21 02:02:19;;;;;;;34.53;11.45;;;;;;;17.92;100.00;99007.11;1737171;82;20979;-81
2022/08/21 02:04:46;;;;;;;40.35;12.03;;;;;;;17.93;100.00;99012.28;1722690;81;21198;-81
2022/08/21 02:07:13;;;;;;;34.65;10.58;;;;;;;17.92;100.00;99013.45;1724241;81;20969;-79
2022/08/21 02:09:42;;;;;;;42.78;11.40;;;;;;;17.93;100.00;99012.28;1710743;81;21052;-81
2022/08/21 02:12:10;;;;;;;32.33;11.08;;;;;;;17.92;100.00;99008.50;1722027;82;22050;-80
2022/08/21 02:14:37;;;;;;;37.13;11.20;;;;;;;17.93;100.00;99005.92;1714383;82;21530;-80
2022/08/21 02:17:04;;;;;;;30.40;11.55;;;;;;;17.92;100.00;99007.91;1722281;82;20979;-80
2022/08/21 02:19:31;;;;;;;34.13;11.53;;;;;;;17.92;100.00;99010.68;1731863;82;21559;-79
2022/08/21 02:21:57;;;;;;;39.30;10.58;;;;;;;17.91;100.00;98997.98;1735678;81;20948;-79
2022/08/21 02:24:24;;;;;;;31.42;11.45;;;;;;;17.92;100.00;99004.33;1749405;82;21107;-80
2022/08/21 02:26:51;;;;;;;34.63;11.63;;;;;;;17.93;100.00;99009.50;1736532;82;20943;-79
2022/08/21 02:29:17;;;;;;;35.45;11.65;;;;;;;17.94;100.00;99004.75;1728413;81;21015;-81
2022/08/21 02:31:44;;;;;;;40.88;12.68;;;;;;;17.95;100.00;98999.41;1730287;81;20963;-81
2022/08/21 02:34:11;;;;;;;38.45;11.68;;;;;;;17.97;100.00;98997.05;1723889;82;21011;-81
2022/08/21 02:36:37;;;;;;;34.92;12.70;;;;;;;17.98;100.00;99002.23;1714332;81;22070;-82
2022/08/21 02:39:04;;;;;;;34.92;13.08;;;;;;;17.99;100.00;99004.42;1712403;82;20987;-77
2022/08/21 02:41:31;;;;;;;42.30;13.75;;;;;;;18.00;100.00;99006.02;1723023;81;20992;-78
2022/08/21 02:43:58;;;;;;;36.68;13.75;;;;;;;18.01;100.00;99003.45;1741258;81;21542;-79
2022/08/21 02:46:25;;;;;;;35.52;13.25;;;;;;;18.02;100.00;98997.52;1723281;82;21543;-79
2022/08/21 02:48:52;;;;;;;35.88;14.53;;;;;;;18.04;100.00;99004.88;1724819;82;21110;-78
2022/08/21 02:51:19;;;;;;;44.05;14.03;;;;;;;18.06;100.00;99006.69;1721711;82;20998;-78
2022/08/21 02:53:47;;;;;;;36.25;13.98;;;;;;;18.07;100.00;99008.30;1725214;82;21082;-80
2022/08/21 02:56:15;;;;;;;28.55;13.30;;;;;;;18.07;100.00;99010.27;1734715;82;21432;-80
2022/08/21 02:58:46;;;;;;;30.52;13.80;;;;;;;18.04;100.00;99009.05;1740760;82;20896;-80
2022/08/21 03:01:13;;;;;;;35.05;13.30;;;;;;;18.05;100.00;99011.23;1728221;82;21083;-84
2022/08/21 03:03:42;;;;;;;29.55;12.25;;;;;;;18.04;100.00;99011.03;1721962;82;21447;-86
2022/08/21 03:06:10;;;;;;;30.27;12.93;;;;;;;18.05;100.00;99015.41;1723229;82;21514;-84
2022/08/21 03:08:38;;;;;;;28.40;13.22;;;;;;;18.05;100.00;99008.46;1729557;81;20904;-83
2022/08/21 03:11:05;;;;;;;35.03;14.05;;;;;;;18.06;100.00;99012.84;1715908;82;21091;-79
2022/08/21 03:13:32;;;;;;;37.40;13.58;;;;;;;18.04;100.00;99011.83;1717088;82;21132;-81
2022/08/21 03:15:58;;;;;;;28.30;13.58;;;;;;;18.03;100.00;99009.42;1724611;82;20944;-78
2022/08/21 03:18:25;;;;;;;32.60;12.93;;;;;;;18.02;100.00;99012.80;1729848;82;21393;-80
2022/08/21 03:20:52;;;;;;;30.82;12.68;;;;;;;18.01;100.00;99009.01;1726037;82;21036;-86
2022/08/21 03:23:19;;;;;;;35.58;13.20;;;;;;;18.03;100.00;99012.20;1740782;82;20948;-84
2022/08/21 03:25:46;;;;;;;38.50;13.38;;;;;;;18.01;100.00;99019.53;1727523;82;21528;-82
2022/08/21 03:28:17;;;;;;;33.38;13.20;;;;;;;18.00;100.00;99008.80;1723443;82;20881;-87
2022/08/21 03:30:46;;;;;;;35.92;13.13;;;;;;;17.99;100.00;99000.25;1732318;82;20976;-83
2022/08/21 03:33:13;;;;;;;25.32;11.60;;;;;;;17.99;100.00;99005.80;1728814;82;20948;-87
2022/08/21 03:35:41;;;;;;;35.83;13.22;;;;;;;17.96;100.00;99003.20;1730110;82;20904;-85
2022/08/21 03:38:08;;;;;;;33.25;13.85;;;;;;;17.94;100.00;99004.75;1731502;82;21274;-85
2022/08/21 03:40:36;;;;;;;50.08;14.78;;;;;;;17.93;100.00;99008.70;1719387;82;20988;-85
2022/08/21 03:43:02;;;;;;;32.20;14.53;;;;;;;17.92;100.00;99008.50;1718428;82;20969;-82
2022/08/21 03:45:29;;;;;;;43.30;15.23;;;;;;;17.91;100.00;99011.86;1728028;82;21002;-83
2022/08/21 03:48:00;;;;;;;42.75;15.65;;;;;;;17.93;100.00;99017.03;1727141;82;20932;-85
2022/08/21 03:50:30;;;;;;;32.20;15.48;;;;;;;17.95;100.00;99025.20;1723268;82;21581;-86
2022/08/21 03:52:57;;;;;;;43.38;14.93;;;;;;;17.99;100.00;99032.19;1729666;82;20959;-85
2022/08/21 03:55:24;;;;;;;38.80;16.70;;;;;;;18.02;100.00;99042.55;1725910;82;21431;-81
2022/08/21 03:57:51;;;;;;;46.85;16.65;;;;;;;18.07;100.00;99042.21;1720041;81;20990;-80
2022/08/21 04:00:18;;;;;;;33.05;16.32;;;;;;;18.11;100.00;99042.47;1721163;82;21146;-85
2022/08/21 04:02:45;;;;;;;42.03;16.65;;;;;;;18.14;100.00;99043.69;1718469;82;21149;-82
2022/08/21 04:05:14;;;;;;;35.00;15.98;;;;;;;18.14;100.00;99044.48;1728785;82;20932;-88
2022/08/21 04:07:40;;;;;;;37.67;16.73;;;;;;;18.18;100.00;99050.68;1721880;82;20966;-83
2022/08/21 04:10:08;;;;;;;29.87;15.58;;;;;;;18.20;100.00;99053.29;1725294;82;21467;-82
2022/08/21 04:12:35;;;;;;;39.73;16.52;;;;;;;18.22;100.00;99045.38;1712813;82;21150;-80
2022/08/21 04:15:03;;;;;;;35.40;17.12;;;;;;;18.24;100.00;99040.83;1732446;82;21970;-79
2022/08/21 04:17:30;;;;;;;35.98;17.92;;;;;;;18.27;100.00;99039.48;1733852;82;20990;-79
2022/08/21 04:19:56;;;;;;;45.95;18.60;;;;;;;18.28;100.00;99041.09;1719540;82;21420;-79
2022/08/21 04:22:23;;;;;;;34.20;16.25;;;;;;;18.30;100.00;99042.09;1727170;82;20900;-80
2022/08/21 04:24:49;;;;;;;30.80;15.05;;;;;;;18.32;100.00;99037.77;1729472;82;20979;-79
2022/08/21 04:27:16;;;;;;;35.80;16.42;;;;;;;18.34;100.00;99034.60;1682075;84;21181;-79
2022/08/21 04:29:43;;;;;;;33.73;15.53;;;;;;;18.38;100.00;99036.24;1675043;85;21165;-81
2022/08/21 04:32:09;;;;;;;33.23;16.27;;;;;;;18.43;100.00;99033.13;1723230;81;21131;-82
2022/08/21 04:34:37;;;;;;;32.85;15.28;;;;;;;18.46;100.00;99039.91;1722101;82;20979;-87
2022/08/21 04:37:04;;;;;;;33.42;15.45;;;;;;;18.49;100.00;99038.52;1716888;82;21531;-85
2022/08/21 04:39:31;;;;;;;32.50;15.32;;;;;;;18.53;100.00;99041.92;1719163;82;21117;-78
2022/08/21 04:42:00;;;;;;;25.77;12.25;;;;;;;18.57;100.00;99046.94;1730056;82;21070;-84
2022/08/21 04:44:27;;;;;;;33.67;15.20;;;;;;;18.64;100.00;99047.05;1712804;83;20950;-83
2022/08/21 04:46:54;;;;;;;26.30;14.23;;;;;;;18.69;100.00;99040.55;1731887;81;20950;-83
2022/08/21 04:49:21;;;;;;;26.20;13.50;;;;;;;18.75;100.00;99048.75;1743209;81;20979;-84
2022/08/21 04:51:59;;;;;;;30.40;15.05;;;;;;;18.82;100.00;99031.34;1725034;81;21117;-87
2022/08/21 04:54:26;;;;;;;26.80;15.55;;;;;;;18.87;100.00;99033.77;1727963;81;21150;-83
2022/08/21 04:56:56;;;;;;;28.62;15.45;;;;;;;18.89;100.00;99030.02;1754935;80;20932;-85
2022/08/21 04:59:28;;;;;;;33.28;17.23;;;;;;;18.88;100.00;99033.98;1760252;81;21028;-83
2022/08/21 05:01:56;;;;;;;36.05;15.70;;;;;;;18.88;100.00;99038.15;1768953;80;21415;-85
2022/08/21 05:04:28;;;;;;;24.90;15.10;;;;;;;18.89;100.00;99030.02;1770573;80;21823;-88
2022/08/21 05:06:56;;;;;;;36.77;16.73;;;;;;;18.94;100.00;99025.48;1754086;80;20871;-89
2022/08/21 05:09:23;;;;;;;32.10;17.80;;;;;;;19.00;100.00;99025.94;1766556;80;20993;-90
2022/08/21 05:11:51;;;;;;;29.87;18.10;;;;;;;19.02;100.00;99034.70;1765982;80;21499;-83
2022/08/21 05:14:19;;;;;;;31.00;16.17;;;;;;;19.01;100.00;99039.46;1758798;80;21558;-89
2022/08/21 05:16:46;;;;;;;28.10;17.05;;;;;;;19.01;100.00;99037.27;1757982;80;21127;-88
2022/08/21 05:19:13;;;;;;;36.10;16.90;;;;;;;19.02;100.00;99040.27;1759502;80;20967;-89
2022/08/21 05:21:42;;;;;;;33.70;18.15;;;;;;;19.05;100.00;99041.69;1766989;80;21047;-89
2022/08/21 05:24:09;;;;;;;33.85;19.12;;;;;;;19.09;100.00;99040.30;1748706;80;21094;-87
2022/08/21 05:26:36;;;;;;;34.30;18.67;;;;;;;19.08;100.00;99042.27;1749778;80;20927;-86
2022/08/21 05:29:03;;;;;;;34.88;18.87;;;;;;;19.10;100.00;99045.47;1767164;80;21076;-76
2022/08/21 05:31:30;;;;;;;43.55;20.35;;;;;;;19.13;100.00;99048.08;1747548;81;21094;-77
2022/08/21 05:33:57;;;;;;;49.45;22.40;;;;;;;19.15;100.00;99040.14;1749375;81;21027;-80
2022/08/21 05:36:24;;;;;;;45.43;23.77;;;;;;;19.19;100.00;99041.56;1754176;81;21055;-75
2022/08/21 05:38:53;;;;;;;47.65;23.47;;;;;;;19.23;100.00;99035.44;1752827;80;21081;-76
2022/08/21 05:41:20;;;;;;;54.15;23.87;;;;;;;19.29;100.00;99042.24;1756208;81;22123;-76
2022/08/21 05:43:53;;;;;;;42.53;22.27;;;;;;;19.32;100.00;99042.27;1755277;80;21095;-77
2022/08/21 05:46:27;;;;;;;48.70;24.07;;;;;;;19.39;100.00;99041.53;1728919;81;20944;-75
2022/08/21 05:48:58;;;;;;;48.08;23.73;;;;;;;19.49;100.00;99036.62;1758390;81;21083;-76
2022/08/21 05:51:31;;;;;;;48.27;22.90;;;;;;;19.67;100.00;99038.14;1755805;81;21011;-76
2022/08/21 05:54:00;;;;;;;42.45;21.40;;;;;;;19.84;100.00;99038.03;1753423;81;21908;-80
2022/08/21 05:56:31;;;;;;;45.10;20.27;;;;;;;19.93;100.00;99035.70;1749015;81;20986;-84
2022/08/21 05:59:02;;;;;;;34.23;18.82;;;;;;;20.03;100.00;99036.34;1749422;81;20982;-84
2022/08/21 06:01:31;;;;;;;39.70;19.82;;;;;;;20.13;100.00;99038.97;1759100;81;20988;-80
2022/08/21 06:04:00;;;;;;;36.13;17.95;;;;;;;20.26;100.00;99038.80;1758160;81;21079;-79
2022/08/21 06:06:30;;;;;;;38.30;16.67;;;;;;;20.38;100.00;99051.02;1758058;81;21153;-77
2022/08/21 06:09:02;;;;;;;35.70;16.15;;;;;;;20.46;100.00;99045.67;1746499;81;20951;-80
2022/08/21 06:11:31;;;;;;;28.17;15.08;;;;;;;20.56;100.00;99045.50;1696869;83;32858;-79
2022/08/21 06:14:06;;;;;;;31.02;13.80;;;;;;;20.65;100.00;99045.92;1734105;81;21047;-80
2022/08/21 06:16:33;;;;;;;27.35;14.87;;;;;;;20.73;100.00;99041.36;1753377;80;21507;-77
2022/08/21 06:19:02;;;;;;;30.12;13.88;;;;;;;20.84;100.00;99049.72;1761071;81;21848;-82
2022/08/21 06:21:30;;;;;;;26.95;11.53;;;;;;;20.94;100.00;99046.14;1748520;81;20967;-82
2022/08/21 06:23:57;;;;;;;29.10;11.25;;;;;;;21.04;100.00;99048.14;1754504;81;21027;-85
2022/08/21 06:26:28;;;;;;;33.88;12.50;;;;;;;21.12;100.00;99036.98;1745697;81;21445;-79
2022/08/21 06:28:59;;;;;;;35.50;11.93;;;;;;;21.17;100.00;99033.80;1758690;80;20845;-76
2022/08/21 06:31:30;;;;;;;30.62;11.57;;;;;;;21.24;100.00;99034.63;1730248;81;20984;-93
2022/08/21 06:34:04;;;;;;;26.37;10.55;;;;;;;21.28;100.00;99031.84;1748799;81;20953;-85
2022/08/21 06:36:32;;;;;;;32.15;9.40;;;;;;;21.29;100.00;99042.60;1758635;81;20901;-81
2022/08/21 06:39:03;;;;;;;33.08;9.95;;;;;;;21.29;100.00;99045.39;1736125;81;20936;-86
2022/08/21 06:41:33;;;;;;;24.60;8.98;;;;;;;21.30;100.00;99038.61;1756760;81;20939;-88
2022/08/21 06:44:01;;;;;;;29.70;9.78;;;;;;;21.36;100.00;99045.39;1754813;80;21116;-81
2022/08/21 06:46:31;;;;;;;23.30;8.30;;;;;;;21.47;100.00;99043.95;1752633;81;21018;-79
2022/08/21 06:49:01;;;;;;;32.48;8.98;;;;;;;21.56;100.00;99042.16;1757980;81;20980;-81
2022/08/21 06:51:34;;;;;;;28.73;8.45;;;;;;;21.67;100.00;99047.13;1727791;81;20984;-81
2022/08/21 06:54:02;;;;;;;28.30;8.08;;;;;;;21.80;100.00;99046.09;1756885;81;21420;-77
2022/08/21 06:56:36;;;;;;;33.48;8.65;;;;;;;21.89;100.00;99043.68;1752067;81;21528;-78
2022/08/21 06:59:05;;;;;;;21.55;8.05;;;;;;;21.92;100.00;99041.47;1754453;81;20984;-84
2022/08/21 07:01:34;;;;;;;27.73;9.40;;;;;;;21.94;100.00;99044.66;1759604;80;21125;-84
2022/08/21 07:04:03;;;;;;;25.40;7.90;;;;;;;22.00;100.00;99043.81;1753206;81;20901;-85
2022/08/21 07:06:36;;;;;;;19.90;7.72;;;;;;;22.11;100.00;99045.81;1748276;81;21101;-74
2022/08/21 07:09:10;;;;;;;32.67;7.60;;;;;;;22.21;100.00;99043.58;1751054;80;21790;-77
2022/08/21 07:11:42;;;;;;;33.00;8.55;;;;;;;22.34;100.00;99046.11;1729963;81;20984;-81
2022/08/21 07:14:12;;;;;;;37.20;8.30;;;;;;;22.46;100.00;99046.25;1722232;81;20965;-81
2022/08/21 07:16:47;;;;;;;27.93;8.45;;;;;;;22.64;100.00;99038.53;1756953;80;20920;-75
2022/08/21 07:19:17;;;;;;;23.73;7.62;;;;;;;22.85;100.00;99041.23;1758612;81;20889;-77
2022/08/21 07:21:47;;;;;;;34.58;8.53;;;;;;;23.01;100.00;99040.12;1737630;81;20981;-82
2022/08/21 07:24:16;;;;;;;28.35;8.50;;;;;;;23.04;97.31;99043.49;1726506;82;21572;-78
2022/08/21 07:26:47;;;;;;;34.65;8.28;;;;;;;22.90;97.44;99038.00;1759730;81;21467;-77
2022/08/21 07:29:16;;;;;;;26.02;8.75;;;;;;;22.97;100.00;99034.36;1750575;81;21040;-74
2022/08/21 07:31:43;;;;;;;28.65;7.70;;;;;;;23.21;100.00;99034.73;1751432;81;21019;-75
2022/08/21 07:34:14;;;;;;;27.87;7.03;;;;;;;23.46;98.78;99021.11;1751799;81;21252;-75
2022/08/21 07:36:43;;;;;;;25.30;7.72;;;;;;;23.52;93.32;99025.86;1750939;81;20979;-78
2022/08/21 07:39:14;;;;;;;29.77;7.65;;;;;;;23.53;94.50;99021.05;1758901;80;20995;-77
2022/08/21 07:41:48;;;;;;;24.12;7.53;;;;;;;23.52;92.88;99023.05;1753226;81;28668;-74
2022/08/21 07:44:19;;;;;;;47.48;8.10;;;;;;;23.54;94.70;99017.06;1755116;81;20978;-77
2022/08/21 07:46:48;;;;;;;19.50;6.03;;;;;;;23.61;93.58;99016.99;1744719;81;21592;-73
2022/08/21 07:49:14;;;;;;;28.77;7.28;;;;;;;23.66;91.68;99013.74;1751398;81;21035;-84
2022/08/21 07:51:51;;;;;;;21.12;7.03;;;;;;;23.78;92.32;99017.39;1749371;81;20944;-85
2022/08/21 07:54:20;;;;;;;;;;;;;;;24.03;92.09;99015.09;1749825;81;21071;-82
2022/08/21 07:56:48;;;;;;;25.60;6.10;;;;;;;24.34;90.73;99010.30;1754063;80;20133;-77
2022/08/21 07:59:17;;;;;;;18.10;5.75;;;;;;;24.68;90.02;99014.44;1747805;81;21133;-73
2022/08/21 08:01:45;;;;;;;30.72;6.40;;;;;;;25.00;84.85;99008.33;1724873;81;21546;-74
2022/08/21 08:04:12;;;;;;;29.55;6.12;;;;;;;25.29;82.50;99017.08;1750608;81;21043;-75
2022/08/21 08:06:39;;;;;;;27.50;5.90;;;;;;;25.56;82.01;99010.56;1761397;81;21059;-73
2022/08/21 08:09:06;;;;;;;24.82;5.17;;;;;;;25.74;79.72;99004.03;1747069;80;21052;-72
2022/08/21 08:11:33;;;;;;;28.83;5.90;;;;;;;25.91;77.54;99002.09;1760499;81;21154;-73
2022/08/21 08:14:03;;;;;;;22.40;5.30;;;;;;;26.04;76.51;99010.65;1748375;81;21391;-74
2022/08/21 08:16:32;;;;;;;28.23;5.92;;;;;;;26.04;74.81;99003.00;1750442;80;21138;-75
2022/08/21 08:18:59;;;;;;;25.08;6.15;;;;;;;26.06;74.96;98996.33;1750651;80;20892;-78
2022/08/21 08:21:30;;;;;;;28.40;6.00;;;;;;;26.28;76.24;98999.49;1752154;81;21542;-75
2022/08/21 08:24:00;;;;;;;17.17;5.08;;;;;;;26.50;73.67;99000.64;1759117;81;20952;-75
2022/08/21 08:26:34;;;;;;;29.05;6.62;;;;;;;26.65;72.39;98998.27;1753950;80;20971;-75
2022/08/21 08:29:00;;;;;;;25.40;6.03;;;;;;;26.81;72.98;98989.05;1755393;81;20988;-77
2022/08/21 08:31:29;;;;;;;23.32;5.00;;;;;;;27.06;72.01;98991.30;1764190;81;20904;-77
2022/08/21 08:34:00;;;;;;;16.05;4.67;;;;;;;27.12;66.57;98996.58;1755432;81;20907;-78
2022/08/21 08:36:36;;;;;;;22.98;6.00;;;;;;;27.18;67.87;98994.79;1760026;81;21464;-75
2022/08/21 08:39:08;;;;;;;32.30;7.15;;;;;;;27.36;68.81;98991.52;1727176;82;21572;-79
2022/08/21 08:41:37;;;;;;;33.40;7.67;;;;;;;27.56;68.40;98979.50;1760232;80;21031;-83
2022/08/21 08:44:05;;;;;;;25.75;5.60;;;;;;;27.79;69.19;98989.13;1754128;81;21594;-81
2022/08/21 08:46:44;;;;;;;25.00;6.40;;;;;;;28.01;67.41;98986.50;1761952;81;20980;-81
2022/08/21 08:49:23;;;;;;;20.82;5.22;;;;;;;28.25;66.70;98974.34;1750924;80;21137;-82
2022/08/21 08:52:15;;;;;;;34.18;5.37;;;;;;;28.43;64.30;98981.63;1749102;81;21079;-83
2022/08/21 08:55:10;;;;;;;24.87;5.40;;;;;;;28.47;63.38;98975.87;1749248;81;21004;-83
2022/08/21 08:57:38;;;;;;;22.80;5.12;;;;;;;28.61;63.89;98981.08;1757946;80;20983;-81
2022/08/21 09:00:12;;;;;;;16.65;4.95;;;;;;;28.66;61.60;98977.69;1759201;81;21411;-81
2022/08/21 09:02:40;;;;;;;24.65;5.50;;;;;;;28.69;60.49;98979.61;1753645;81;21131;-81
2022/08/21 09:05:07;;;;;;;25.77;5.62;;;;;;;28.76;62.42;98975.77;1756849;81;21046;-78
2022/08/21 09:07:46;;;;;;;19.87;4.25;;;;;;;28.99;62.73;98973.20;1757877;81;21558;-79
2022/08/21 09:10:24;;;;;;;17.15;5.00;;;;;;;29.17;57.92;98972.78;1746827;81;21482;-84
2022/08/21 09:13:18;;;;;;;25.00;5.12;;;;;;;29.05;57.20;98969.36;1718858;81;21006;-83
2022/08/21 09:16:08;;;;;;;20.27;4.72;;;;;;;28.96;58.04;98973.49;1743810;81;21269;-81
2022/08/21 09:19:01;;;;;;;14.37;4.37;;;;;;;29.05;58.97;98977.83;1759977;80;20989;-82
2022/08/21 09:21:51;;;;;;;18.23;5.12;;;;;;;29.05;55.40;98973.59;1725707;82;21019;-78
2022/08/21 09:24:36;;;;;;;20.97;4.80;;;;;;;28.69;56.49;98972.55;1708713;83;21006;-78
2022/08/21 09:27:13;;;;;;;18.48;4.58;;;;;;;28.48;59.16;98975.42;1756976;80;20941;-77
2022/08/21 09:29:50;;;;;;;18.90;5.03;;;;;;;28.67;57.65;98973.63;1759940;80;21165;-77
2022/08/21 09:32:25;;;;;;;16.32;4.95;;;;;;;28.87;58.80;98971.38;1754941;80;20943;-75
2022/08/21 09:35:13;;;;;;;16.40;4.58;;;;;;;29.10;58.15;98972.23;1757172;81;21468;-75
2022/08/21 09:37:57;;;;;;;22.98;5.20;;;;;;;29.27;55.74;98970.05;1750321;80;21014;-76
2022/08/21 09:40:41;;;;;;;16.25;4.92;;;;;;;29.41;56.71;98966.73;1751101;80;21087;-77
2022/08/21 09:43:18;;;;;;;17.57;4.12;;;;;;;29.39;55.90;98971.43;1758071;80;21533;-74
2022/08/21 09:45:46;;;;;;;10.85;3.87;;;;;;;29.52;56.20;98979.25;1763507;80;21100;-76
2022/08/21 09:48:17;;;;;;;22.32;4.90;;;;;;;29.59;54.87;98976.79;1767404;80;21110;-75
2022/08/21 09:50:44;;;;;;;14.97;4.90;;;;;;;29.44;55.54;98975.74;1764374;80;21058;-74
2022/08/21 09:53:29;;;;;;;12.50;3.92;;;;;;;29.30;56.01;98969.92;1754071;80;21130;-75
2022/08/21 09:58:47;;;;;;;18.17;4.20;;;;;;;28.90;56.09;98968.24;1757377;80;21065;-75
2022/08/21 10:01:21;;;;;;;14.00;4.30;;;;;;;28.58;57.97;98972.09;1752305;80;21205;-72
2022/08/21 10:03:47;;;;;;;15.88;4.95;;;;;;;28.33;58.64;98972.86;1750123;80;21420;-72
2022/08/21 10:06:24;;;;;;;20.72;5.08;;;;;;;28.25;59.48;98974.34;1754902;80;21044;-78
2022/08/21 10:09:04;;;;;;;18.23;4.22;;;;;;;28.36;58.86;98962.08;1762974;80;21209;-76
2022/08/21 10:11:31;;;;;;;26.20;5.80;;;;;;;28.51;57.20;98966.05;1744093;80;21019;-76
2022/08/21 10:14:18;;;;;;;18.27;5.47;;;;;;;28.62;57.92;98963.52;1728716;81;20952;-74
2022/08/21 10:17:01;;;;;;;14.95;4.60;;;;;;;28.90;56.05;98960.56;1724153;81;21482;-83
2022/08/21 10:19:50;;;;;;;;;;;;;;;29.08;56.64;98957.77;1747753;81;21082;-86
2022/08/21 10:22:49;;;;;;;18.25;4.72;;;;;;;29.15;57.22;98955.49;1740670;81;21740;-76
2022/08/21 10:25:33;;;;;;;23.27;4.83;;;;;;;29.03;56.95;98952.69;1744320;81;21020;-84
2022/08/21 10:28:05;;;;;;;18.70;5.05;;;;;;;28.66;56.93;98957.92;1746929;81;20927;-84
2022/08/21 10:30:52;;;;;;;17.12;4.80;;;;;;;28.31;57.76;98950.59;1743034;81;20983;-76
2022/08/21 10:33:48;;;;;;;16.75;4.97;;;;;;;28.19;57.92;98950.71;1745072;81;20950;-79
2022/08/21 10:36:24;;;;;;;24.87;5.53;;;;;;;28.06;58.67;98945.66;1728014;82;21247;-76
2022/08/21 10:39:23;;;;;;;23.57;5.45;;;;;;;27.83;59.38;98953.78;1699634;82;20943;-75
2022/08/21 10:42:20;;;;;;;20.55;5.20;;;;;;;27.69;61.91;98952.19;1652018;85;21082;-75
2022/08/21 10:45:17;;;;;;;24.82;7.58;;;;;;;27.66;60.40;98959.33;1660710;85;21564;-74
2022/08/21 10:47:55;;;;;;;18.32;5.97;;;;;;;27.65;61.63;98953.52;1732324;81;21015;-75
2022/08/21 10:50:47;;;;;;;17.75;6.15;;;;;;;27.60;61.23;98957.05;1747483;81;21224;-76
2022/08/21 10:53:36;;;;;;;25.90;5.33;;;;;;;27.70;62.86;98951.56;1721119;82;21423;-76
2022/08/21 10:56:23;;;;;;;28.12;5.70;;;;;;;27.94;60.59;98947.22;1660042;84;21626;-76
2022/08/21 10:59:27;;;;;;;32.75;5.85;;;;;;;28.14;61.72;98948.45;1697527;83;20911;-75
2022/08/21 11:02:14;;;;;;;20.30;5.60;;;;;;;28.55;60.72;98949.79;1744119;82;20933;-74
2022/08/21 11:05:08;;;;;;;18.10;5.58;;;;;;;29.25;61.11;98952.13;1724544;81;21275;-76
2022/08/21 11:08:06;;;;;;;22.87;5.47;;;;;;;29.62;57.86;98943.35;1732251;81;20892;-76
2022/08/21 11:10:47;;;;;;;24.23;5.28;;;;;;;29.65;57.61;98942.44;1670912;84;21009;-74
2022/08/21 11:13:40;;;;;;;30.57;6.20;;;;;;;29.37;54.54;98947.06;1710537;83;21012;-77
2022/08/21 11:16:41;;;;;;;234.90;45.70;;;;;;;29.06;55.62;98947.55;1713336;81;20947;-75
2022/08/21 11:19:36;;;;;;;50.15;12.18;;;;;;;28.70;58.23;98945.89;1724220;81;21471;-76
2022/08/21 11:22:20;;;;;;;19.92;5.12;;;;;;;28.43;59.36;98939.91;1736993;81;20936;-79
2022/08/21 11:25:04;;;;;;;43.33;8.98;;;;;;;28.49;58.50;98939.51;1735810;81;21008;-82
2022/08/21 11:27:51;;;;;;;117.35;24.67;;;;;;;28.73;58.14;98940.75;1730395;81;20979;-80
2022/08/21 11:30:18;;;;;;;58.02;15.45;;;;;;;28.76;58.08;98931.37;1734908;81;21040;-75
2022/08/21 11:33:16;;;;;;;60.85;15.58;;;;;;;28.56;56.98;98942.11;1744861;82;21540;-74
2022/08/21 11:36:03;;;;;;;16.62;5.00;;;;;;;28.35;59.15;98936.51;1723591;80;20950;-73
2022/08/21 11:38:45;;;;;;;19.45;4.17;;;;;;;28.47;57.68;98929.28;1735235;81;21064;-72
2022/08/21 11:41:22;;;;;;;33.18;6.70;;;;;;;28.39;56.47;98921.66;1741660;81;21495;-74